Time;durP1;ratioP1;P1;durP2;ratioP2;P2;SDS_P1;SDS_P2;PMS_P1;PMS_P2;Temp;Humidity;BMP_temperature;BMP_pressure;BME280_temperature;BME280_humidity;BME280_pressure;Samples;Min_cycle;Max_cycle;Signal;HPM_P1;HPM_P2
2022/10/03 00:00:18;;;;;;;10.10;2.40;;;;;;;14.68;100.00;99271.78;6086961;23;20043;-88
2022/10/03 00:03:18;;;;;;;14.60;2.20;;;;;;;14.71;100.00;99278.75;6063336;23;20018;-88
2022/10/03 00:06:02;;;;;;;12.10;3.00;;;;;;;14.41;100.00;99284.44;6086532;23;20577;-89
2022/10/03 00:08:34;;;;;;;15.45;2.58;;;;;;;14.57;100.00;99284.19;6062753;23;20014;-89
2022/10/03 00:11:05;;;;;;;13.45;2.95;;;;;;;14.61;100.00;99276.25;6141678;23;20184;-89
2022/10/03 00:13:52;;;;;;;12.13;2.63;;;;;;;14.61;100.00;99276.25;6212872;23;20015;-89
2022/10/03 00:16:17;;;;;;;18.23;3.25;;;;;;;14.28;100.00;99280.28;6213117;23;20008;-89
2022/10/03 00:18:46;;;;;;;17.60;3.35;;;;;;;14.43;100.00;99292.28;6213209;23;20016;-89
2022/10/03 00:21:20;;;;;;;14.07;3.15;;;;;;;14.57;100.00;99279.81;6240279;23;20376;-88
2022/10/03 00:24:13;;;;;;;13.68;2.78;;;;;;;16.68;100.00;99286.84;6211191;23;20008;-88
2022/10/03 00:27:14;;;;;;;13.88;3.03;;;;;;;14.60;100.00;99277.16;6211322;23;20731;-89
2022/10/03 00:30:00;;;;;;;11.27;2.95;;;;;;;14.60;100.00;99276.25;6092106;23;20108;-88
2022/10/03 00:32:31;;;;;;;13.18;2.42;;;;;;;14.67;100.00;99272.69;6091203;23;20005;-89
2022/10/03 00:35:20;;;;;;;14.02;2.80;;;;;;;14.87;100.00;99277.56;6092554;23;20017;-88
2022/10/03 00:38:05;;;;;;;14.73;3.05;;;;;;;13.98;100.00;99277.25;6091430;23;20045;-89
2022/10/03 00:40:34;;;;;;;14.45;2.88;;;;;;;14.46;100.00;99273.88;6089979;23;20012;-89
2022/10/03 00:43:18;;;;;;;19.45;4.18;;;;;;;14.72;100.00;99275.22;6117121;23;20428;-88
2022/10/03 00:46:05;;;;;;;15.77;2.70;;;;;;;14.46;100.00;99276.50;6116566;23;20020;-88
2022/10/03 00:49:15;;;;;;;12.38;2.42;;;;;;;14.58;100.00;99281.53;6090388;23;20045;-88
2022/10/03 00:52:09;;;;;;;10.68;2.58;;;;;;;14.97;100.00;99278.28;6089822;23;20022;-89
2022/10/03 00:54:43;;;;;;;;;;;;;;;15.15;100.00;99288.41;6114219;23;20028;-89
2022/10/03 00:57:35;;;;;;;10.82;2.60;;;;;;;14.79;100.00;99280.31;6115715;23;19924;-88
2022/10/03 01:00:21;;;;;;;11.05;2.45;;;;;;;14.50;100.00;99283.41;6090244;23;20010;-88
2022/10/03 01:03:05;;;;;;;14.65;2.72;;;;;;;14.60;100.00;99285.03;6105478;23;20101;-88
2022/10/03 01:05:38;;;;;;;10.15;2.35;;;;;;;14.40;100.00;99282.69;6211965;23;20422;-88
2022/10/03 01:08:06;;;;;;;;;;;;;;;14.17;100.00;99281.31;6212043;23;20032;-88
2022/10/03 01:11:06;;;;;;;11.13;2.40;;;;;;;14.18;100.00;99276.94;6238604;23;19990;-89
2022/10/03 01:13:41;;;;;;;11.20;2.20;;;;;;;14.04;100.00;99276.28;6238294;23;20047;-89
2022/10/03 01:16:35;;;;;;;11.88;2.40;;;;;;;14.56;100.00;99270.22;6211697;23;20012;-89
2022/10/03 01:19:37;;;;;;;11.38;2.17;;;;;;;14.21;100.00;99276.03;6211602;23;20023;-88
2022/10/03 01:22:06;;;;;;;17.90;2.42;;;;;;;14.57;100.00;99278.94;6238852;23;20076;-88
2022/10/03 01:24:49;;;;;;;11.18;2.00;;;;;;;14.61;100.00;99278.88;6211418;23;20008;-88
2022/10/03 01:27:24;;;;;;;;;;;;;;;14.41;100.00;99278.34;6238785;23;20377;-89
2022/10/03 01:30:22;;;;;;;11.55;2.05;;;;;;;14.03;100.00;99279.78;6212702;23;19934;-88
2022/10/03 01:33:22;;;;;;;12.75;1.90;;;;;;;14.25;100.00;99277.69;6210517;23;20446;-88
2022/10/03 01:36:16;;;;;;;8.57;1.75;;;;;;;14.01;100.00;99282.44;6184004;23;20693;-88
2022/10/03 01:38:48;;;;;;;8.60;1.50;;;;;;;13.90;100.00;99277.34;6210064;23;20008;-89
2022/10/03 01:41:46;;;;;;;8.68;1.60;;;;;;;13.97;100.00;99280.75;6210380;23;20043;-89
2022/10/03 01:44:24;;;;;;;7.47;1.50;;;;;;;14.36;100.00;99270.53;6238695;23;20014;-89
2022/10/03 01:47:34;;;;;;;9.07;1.75;;;;;;;14.32;100.00;99274.97;6211103;23;20438;-89
2022/10/03 01:50:30;;;;;;;8.10;1.50;;;;;;;14.66;100.00;99269.19;6183607;23;20596;-88
2022/10/03 01:53:07;;;;;;;8.93;1.70;;;;;;;14.48;100.00;99290.47;6210288;23;20056;-88
2022/10/03 01:55:54;;;;;;;8.73;1.55;;;;;;;14.37;100.00;99297.66;6238214;23;20020;-88
2022/10/03 01:58:38;;;;;;;8.52;1.80;;;;;;;14.85;100.00;99282.84;6236435;23;20016;-88
2022/10/03 02:01:38;;;;;;;6.18;1.60;;;;;;;15.69;100.00;99284.69;6236658;22;20095;-92
2022/10/03 02:04:21;;;;;;;7.53;1.60;;;;;;;14.44;100.00;99289.63;6233055;22;20094;-94
2022/10/03 02:06:47;;;;;;;;;;;;;;;14.61;100.00;99296.38;6274379;22;20034;-93
2022/10/03 02:09:43;;;;;;;8.13;1.80;;;;;;;14.54;100.00;99289.50;6247369;22;19926;-95
2022/10/03 02:12:37;;;;;;;9.13;2.03;;;;;;;14.47;100.00;99283.47;6247861;22;20220;-94
2022/10/03 02:15:13;;;;;;;;;;;;;;;14.88;100.00;99292.44;6236040;22;20018;-93
2022/10/03 02:18:11;;;;;;;13.55;2.08;;;;;;;14.14;100.00;99304.09;6248712;22;19907;-94
2022/10/03 02:21:04;;;;;;;10.07;1.90;;;;;;;14.71;100.00;99302.38;6249581;22;20731;-93
2022/10/03 02:23:43;;;;;;;17.08;2.25;;;;;;;14.34;100.00;99295.94;6276158;22;20087;-94
2022/10/03 02:26:28;;;;;;;10.98;1.95;;;;;;;14.50;100.00;99299.16;6274012;22;20004;-94
2022/10/03 02:29:14;;;;;;;12.10;2.05;;;;;;;14.56;100.00;99306.06;6248264;22;20015;-94
2022/10/03 02:31:58;;;;;;;7.72;1.77;;;;;;;14.64;100.00;99312.09;6248832;22;20035;-94
2022/10/03 02:34:33;;;;;;;9.85;2.40;;;;;;;14.64;100.00;99312.97;6249335;22;20035;-93
2022/10/03 02:37:31;;;;;;;10.88;2.20;;;;;;;14.73;100.00;99313.72;6276300;22;20031;-93
2022/10/03 02:40:29;;;;;;;11.32;2.00;;;;;;;14.68;100.00;99308.53;6248569;22;20102;-94
2022/10/03 02:43:30;;;;;;;13.07;2.20;;;;;;;14.17;100.00;99307.56;6248974;22;20031;-94
2022/10/03 02:46:17;;;;;;;12.05;2.90;;;;;;;13.95;100.00;99314.84;6248828;22;20090;-92
2022/10/03 02:48:57;;;;;;;18.75;2.97;;;;;;;14.31;100.00;99309.09;6276143;22;20035;-94
2022/10/03 02:51:41;;;;;;;10.40;3.08;;;;;;;14.58;100.00;99312.19;6250702;22;20010;-94
2022/10/03 02:54:44;;;;;;;18.63;5.13;;;;;;;14.09;100.00;99309.41;6251482;22;20023;-94
2022/10/03 02:57:35;;;;;;;26.73;7.47;;;;;;;14.04;100.00;99305.97;6251067;22;20004;-95
2022/10/03 03:00:10;;;;;;;35.45;9.68;;;;;;;14.08;100.00;99297.19;6249900;22;20041;-93
2022/10/03 03:02:57;;;;;;;24.52;7.53;;;;;;;13.80;100.00;99291.47;6245927;23;20058;-94
2022/10/03 03:06:11;;;;;;;17.80;4.97;;;;;;;14.01;100.00;99295.53;6245328;23;20016;-94
2022/10/03 03:08:59;;;;;;;13.98;3.42;;;;;;;14.10;100.00;99297.19;6245579;23;20015;-94
2022/10/03 03:12:03;;;;;;;14.07;3.25;;;;;;;14.90;100.00;99295.91;6246290;23;20008;-93
2022/10/03 03:14:40;;;;;;;;;;;;;;;14.66;100.00;99289.31;6125297;23;20025;-94
2022/10/03 03:17:22;;;;;;;10.52;2.33;;;;;;;14.47;100.00;99289.63;6124104;23;19909;-94
2022/10/03 03:20:26;;;;;;;10.18;2.15;;;;;;;15.07;100.00;99295.56;6100320;23;20021;-94
2022/10/03 03:22:55;;;;;;;7.20;2.33;;;;;;;14.82;100.00;99284.66;6123631;23;20172;-94
2022/10/03 03:25:38;;;;;;;11.60;2.63;;;;;;;14.73;100.00;99276.97;6101147;23;20018;-94
2022/10/03 03:28:21;;;;;;;8.50;2.25;;;;;;;14.41;100.00;99275.72;6099465;23;20026;-93
2022/10/03 03:31:03;;;;;;;13.55;2.63;;;;;;;14.71;100.00;99276.09;6100217;23;20010;-93
2022/10/03 03:33:54;;;;;;;9.70;2.10;;;;;;;14.89;100.00;99278.44;6098480;23;20042;-94
2022/10/03 03:36:26;;;;;;;10.10;2.15;;;;;;;14.63;100.00;99274.50;6122703;23;20017;-94
2022/10/03 03:39:09;;;;;;;9.52;1.50;;;;;;;14.89;100.00;99282.78;6098494;23;20543;-93
2022/10/03 03:42:12;;;;;;;6.25;1.27;;;;;;;14.62;100.00;99280.63;6100319;23;20018;-93
2022/10/03 03:45:18;;;;;;;7.45;1.30;;;;;;;14.54;100.00;99279.00;6100324;23;20017;-94
2022/10/03 03:48:01;;;;;;;8.27;1.40;;;;;;;14.88;100.00;99278.44;6053452;23;20141;-94
2022/10/03 03:50:44;;;;;;;8.15;1.50;;;;;;;15.34;100.00;99286.31;6124023;23;20002;-93
2022/10/03 03:53:36;;;;;;;9.15;1.70;;;;;;;14.93;100.00;99280.06;6124477;23;20006;-94
2022/10/03 03:56:39;;;;;;;9.73;1.40;;;;;;;15.11;100.00;99280.63;6123811;23;20060;-94
2022/10/03 03:59:23;;;;;;;7.97;1.63;;;;;;;14.98;100.00;99274.75;6124662;23;20456;-93
2022/10/03 04:02:12;;;;;;;7.75;1.48;;;;;;;14.77;100.00;99273.41;6122602;23;20022;-94
2022/10/03 04:04:59;;;;;;;8.32;1.40;;;;;;;15.18;100.00;99277.88;6124222;23;20013;-94
2022/10/03 04:07:35;;;;;;;10.40;1.60;;;;;;;15.05;100.00;99273.75;6123188;23;20009;-93
2022/10/03 04:10:15;;;;;;;6.20;1.10;;;;;;;15.29;100.00;99276.78;6122768;23;20044;-93
2022/10/03 04:12:49;;;;;;;7.43;1.20;;;;;;;15.34;100.00;99286.31;6124365;23;20022;-95
2022/10/03 04:15:20;;;;;;;6.93;1.40;;;;;;;15.10;100.00;99282.41;6124002;23;20112;-94
2022/10/03 04:20:55;;;;;;;12.93;1.80;;;;;;;14.54;100.00;99279.00;6247151;23;20027;-94
2022/10/03 04:23:44;;;;;;;8.23;1.40;;;;;;;14.35;100.00;99279.31;6244979;23;20012;-93
2022/10/03 04:26:17;;;;;;;9.63;1.42;;;;;;;14.43;100.00;99272.19;6243800;23;20008;-94
2022/10/03 04:28:42;;;;;;;7.60;1.20;;;;;;;14.68;100.00;99269.16;6245762;23;20012;-94
2022/10/03 04:31:32;;;;;;;7.70;1.13;;;;;;;15.13;100.00;99270.97;6244673;23;20015;-93
2022/10/03 04:34:16;;;;;;;6.00;1.15;;;;;;;14.48;100.00;99274.72;6245486;23;20004;-94
2022/10/03 04:36:41;;;;;;;8.35;1.13;;;;;;;14.93;100.00;99274.81;6243883;23;20014;-93
2022/10/03 04:39:35;;;;;;;8.82;1.35;;;;;;;14.72;100.00;99267.34;6243737;23;20319;-94
2022/10/03 04:42:07;;;;;;;9.20;1.20;;;;;;;14.85;100.00;99251.34;6244364;23;20012;-93
2022/10/03 04:44:55;;;;;;;10.52;1.20;;;;;;;14.38;100.00;99249.50;6245942;23;20016;-93
2022/10/03 04:47:33;;;;;;;9.18;1.20;;;;;;;14.97;100.00;99252.00;6244515;23;20453;-94
2022/10/03 04:50:11;;;;;;;12.30;1.50;;;;;;;15.18;100.00;99258.59;6244220;23;20019;-94
2022/10/03 04:52:48;;;;;;;5.78;1.20;;;;;;;14.71;100.00;99249.84;6244090;23;20031;-93
2022/10/03 04:55:25;;;;;;;7.57;1.10;;;;;;;14.54;100.00;99250.97;6244253;23;20004;-93
2022/10/03 04:58:13;;;;;;;7.82;1.40;;;;;;;14.29;100.00;99253.16;6245656;23;20008;-93
2022/10/03 05:00:45;;;;;;;9.30;1.65;;;;;;;14.29;100.00;99256.66;6243503;23;20008;-93
2022/10/03 05:03:20;;;;;;;11.30;1.50;;;;;;;14.81;100.00;99254.91;6243558;23;20091;-93
2022/10/03 05:05:58;;;;;;;9.43;1.42;;;;;;;14.55;100.00;99254.50;6243184;23;20083;-94
2022/10/03 05:08:41;;;;;;;9.20;1.70;;;;;;;14.54;100.00;99258.00;6245856;23;20011;-94
2022/10/03 05:11:23;;;;;;;10.35;1.50;;;;;;;14.25;100.00;99256.72;6243785;23;20616;-94
2022/10/03 05:14:15;;;;;;;7.47;1.53;;;;;;;14.80;100.00;99253.19;6244826;23;20091;-93
2022/10/03 05:17:19;;;;;;;9.27;1.40;;;;;;;15.20;100.00;99256.81;6246135;23;20560;-94
2022/10/03 05:19:57;;;;;;;7.30;1.23;;;;;;;15.11;100.00;99247.34;6200777;22;20248;-93
2022/10/03 05:22:41;;;;;;;8.93;1.30;;;;;;;15.33;100.00;99246.91;6246054;23;20008;-93
2022/10/03 05:25:21;;;;;;;7.72;1.60;;;;;;;14.72;100.00;99238.47;6244475;23;20036;-94
2022/10/03 05:27:50;;;;;;;6.38;1.20;;;;;;;14.61;100.00;99242.13;6245617;23;20015;-93
2022/10/03 05:30:52;;;;;;;9.15;1.27;;;;;;;14.84;100.00;99243.50;6242620;23;20016;-94
2022/10/03 05:33:58;;;;;;;11.65;1.13;;;;;;;15.00;100.00;99247.56;6244156;23;20058;-94
2022/10/03 05:36:47;;;;;;;5.28;1.00;;;;;;;14.81;100.00;99236.53;6244317;23;20032;-93
2022/10/03 05:39:27;;;;;;;8.05;1.50;;;;;;;14.53;100.00;99246.66;6247063;23;20058;-95
2022/10/03 05:42:21;;;;;;;7.28;1.20;;;;;;;14.87;100.00;99246.06;6244415;23;20004;-92
2022/10/03 05:45:31;;;;;;;5.63;1.30;;;;;;;14.97;100.00;99244.97;6246518;23;19999;-95
2022/10/03 05:48:31;;;;;;;6.78;1.15;;;;;;;14.89;100.00;99233.78;6151874;23;20552;-94
2022/10/03 05:51:45;;;;;;;4.93;0.75;;;;;;;14.88;100.00;99242.56;6127108;23;20021;-95
2022/10/03 05:54:32;;;;;;;5.75;1.45;;;;;;;14.72;100.00;99228.81;6124821;23;20012;-95
2022/10/03 05:57:37;;;;;;;7.07;1.20;;;;;;;14.62;100.00;99230.75;6129288;23;20005;-95
2022/10/03 06:00:22;;;;;;;7.05;1.02;;;;;;;14.62;100.00;99220.25;6127549;23;20101;-95
2022/10/03 06:03:29;;;;;;;7.82;1.05;;;;;;;14.72;100.00;99234.06;6130075;23;20025;-95
2022/10/03 06:06:16;;;;;;;5.15;1.02;;;;;;;14.41;100.00;99231.13;6128622;23;20028;-96
2022/10/03 06:09:16;;;;;;;6.38;0.90;;;;;;;14.38;100.00;99234.66;6128100;23;20013;-94
2022/10/03 06:12:13;;;;;;;7.97;1.13;;;;;;;14.12;100.00;99235.94;6130232;23;20092;-95
2022/10/03 06:15:02;;;;;;;9.95;1.27;;;;;;;14.43;100.00;99238.06;6127302;23;20392;-96
2022/10/03 06:17:50;;;;;;;9.23;1.83;;;;;;;16.53;100.00;99240.69;6127564;23;20029;-96
2022/10/03 06:20:40;;;;;;;10.13;1.55;;;;;;;14.39;100.00;99238.13;6129100;23;20010;-95
2022/10/03 06:23:56;;;;;;;9.73;1.33;;;;;;;17.30;100.00;99250.94;6128912;23;20013;-96
2022/10/03 06:27:08;;;;;;;7.38;1.10;;;;;;;15.19;100.00;99253.31;6181952;23;20012;-96
2022/10/03 06:30:20;;;;;;;8.43;1.08;;;;;;;14.91;100.00;99236.38;6220480;23;20513;-95
2022/10/03 06:33:13;;;;;;;4.72;1.00;;;;;;;14.89;100.00;99239.03;6242597;23;20422;-95
2022/10/03 06:36:00;;;;;;;6.10;0.93;;;;;;;14.96;100.00;99240.66;6221317;23;20083;-95
2022/10/03 06:39:07;;;;;;;5.88;1.13;;;;;;;14.91;100.00;99231.13;6245837;23;20315;-94
2022/10/03 06:42:20;;;;;;;6.25;1.08;;;;;;;14.68;100.00;99229.78;6244708;23;20027;-95
2022/10/03 06:45:26;;;;;;;9.98;1.83;;;;;;;14.44;100.00;99224.03;6243005;23;20385;-94
2022/10/03 06:47:58;;;;;;;4.68;1.10;;;;;;;14.37;100.00;99224.19;6245496;23;20008;-94
2022/10/03 06:50:48;;;;;;;11.48;1.08;;;;;;;14.76;100.00;99225.25;6244750;23;20008;-94
2022/10/03 06:53:37;;;;;;;8.98;1.15;;;;;;;14.82;100.00;99222.53;6243004;23;20000;-94
2022/10/03 06:56:41;;;;;;;10.98;1.33;;;;;;;14.28;100.00;99218.19;6244758;23;20032;-94
2022/10/03 07:03:03;;;;;;;6.15;1.30;;;;;;;14.55;100.00;99221.22;6256942;22;20071;-96
2022/10/03 07:06:04;;;;;;;8.15;1.02;;;;;;;14.39;100.00;99227.63;6250087;22;20067;-96
2022/10/03 07:08:36;;;;;;;9.73;1.40;;;;;;;14.26;100.00;99235.69;6250776;22;20011;-95
2022/10/03 07:11:42;;;;;;;7.50;1.10;;;;;;;14.52;100.00;99230.00;6250159;22;20011;-93
2022/10/03 07:14:37;;;;;;;5.63;0.90;;;;;;;14.61;100.00;99230.75;6249123;22;20019;-94
2022/10/03 07:17:04;;;;;;;7.00;1.10;;;;;;;14.14;100.00;99243.75;6213677;23;20092;-95
2022/10/03 07:19:32;;;;;;;8.27;1.20;;;;;;;14.58;100.00;99236.91;6189285;23;20156;-95
2022/10/03 07:22:46;;;;;;;6.35;1.15;;;;;;;14.32;100.00;99230.38;6190158;23;20005;-95
2022/10/03 07:25:42;;;;;;;10.00;1.17;;;;;;;14.44;100.00;99221.41;6188061;23;20005;-95
2022/10/03 07:28:29;;;;;;;7.75;1.20;;;;;;;14.69;100.00;99218.38;6212887;23;20000;-95
2022/10/03 07:34:46;;;;;;;8.45;1.42;;;;;;;14.90;100.00;99232.00;6194297;23;20296;-95
2022/10/03 07:41:17;;;;;;;5.80;1.10;;;;;;;18.81;100.00;99248.00;6215574;23;20047;-96
2022/10/03 07:44:19;;;;;;;6.95;1.00;;;;;;;15.98;100.00;99248.19;6187813;23;20092;-95
2022/10/03 07:47:13;;;;;;;8.10;1.30;;;;;;;14.91;100.00;99247.75;6213466;23;20007;-95
2022/10/03 07:50:16;;;;;;;10.80;1.40;;;;;;;14.83;100.00;99252.25;6249290;22;20012;-96
2022/10/03 07:53:25;;;;;;;8.45;1.15;;;;;;;15.08;100.00;99255.28;6204795;22;20552;-95
2022/10/03 07:56:07;;;;;;;7.07;1.23;;;;;;;15.14;100.00;99252.56;6250399;22;20004;-94
2022/10/03 07:59:09;;;;;;;9.65;1.83;;;;;;;15.09;100.00;99258.81;6251091;22;20404;-96
2022/10/03 08:02:13;;;;;;;8.45;1.33;;;;;;;15.10;100.00;99257.88;6245268;23;20012;-95
2022/10/03 08:05:03;;;;;;;11.18;1.58;;;;;;;15.42;100.00;99259.88;6246533;23;20012;-95
2022/10/03 08:08:03;;;;;;;7.00;1.50;;;;;;;15.72;100.00;99265.38;6245152;23;20012;-96
2022/10/03 08:11:09;;;;;;;7.43;1.52;;;;;;;15.34;100.00;99261.81;6244869;23;20079;-95
2022/10/03 08:13:40;;;;;;;8.98;1.48;;;;;;;15.40;100.00;99256.41;6244896;23;20110;-95
2022/10/03 08:16:44;;;;;;;8.57;1.58;;;;;;;15.24;100.00;99255.88;6244839;23;20008;-95
2022/10/03 08:19:30;;;;;;;7.63;1.40;;;;;;;15.40;100.00;99261.66;6243562;23;20012;-96
2022/10/03 08:22:10;;;;;;;10.27;1.30;;;;;;;15.51;100.00;99251.78;6244024;23;20046;-95
2022/10/03 08:25:13;;;;;;;11.98;1.65;;;;;;;15.67;100.00;99254.06;6245472;23;20007;-96
2022/10/03 08:28:08;;;;;;;9.23;1.50;;;;;;;15.88;100.00;99258.06;6245606;23;20004;-95
2022/10/03 08:31:05;;;;;;;9.75;1.45;;;;;;;15.66;100.00;99253.22;6244360;23;20000;-96
2022/10/03 08:40:36;;;;;;;9.40;1.60;;;;;;;16.04;100.00;99258.56;6124260;23;20018;-94
2022/10/03 08:43:13;;;;;;;7.80;1.35;;;;;;;16.12;100.00;99250.50;6124435;23;20044;-96
2022/10/03 08:46:01;;;;;;;6.60;1.10;;;;;;;16.39;100.00;99256.81;6123233;23;20006;-96
2022/10/03 08:49:00;;;;;;;6.05;1.15;;;;;;;16.49;100.00;99249.56;6099283;23;20018;-96
2022/10/03 08:51:51;;;;;;;8.95;1.67;;;;;;;16.86;100.00;99265.28;6098201;23;20017;-95
2022/10/03 08:54:33;;;;;;;10.52;1.40;;;;;;;16.87;100.00;99263.53;6123379;23;20065;-96
2022/10/03 08:57:09;;;;;;;7.00;1.08;;;;;;;16.94;100.00;99246.66;6097293;23;20006;-96
2022/10/03 09:00:06;;;;;;;6.78;1.30;;;;;;;17.03;100.00;99246.41;6124668;23;20050;-96
2022/10/03 09:02:43;;;;;;;10.10;1.20;;;;;;;16.70;100.00;99251.66;6122732;23;20046;-96
2022/10/03 09:05:47;;;;;;;7.47;1.08;;;;;;;16.94;100.00;99235.25;6098655;23;20018;-96
2022/10/03 09:08:40;;;;;;;9.07;1.15;;;;;;;17.29;100.00;99247.47;6012072;23;20043;-96
2022/10/03 09:14:52;;;;;;;7.63;1.05;;;;;;;17.36;100.00;99246.38;6122784;23;20069;-96
2022/10/03 09:17:54;;;;;;;8.85;1.17;;;;;;;17.75;100.00;99240.81;6119682;23;20013;-95
2022/10/03 09:20:50;;;;;;;5.97;1.20;;;;;;;17.31;100.00;99240.34;6118834;23;20077;-95
2022/10/03 09:23:37;;;;;;;5.72;0.95;;;;;;;17.78;100.00;99246.91;6121674;23;20081;-96
2022/10/03 09:26:27;;;;;;;7.25;1.15;;;;;;;17.68;100.00;99252.47;6122747;23;20026;-96
2022/10/03 09:29:37;;;;;;;7.95;1.23;;;;;;;17.42;100.00;99247.09;6121829;23;20017;-96
2022/10/03 09:32:40;;;;;;;6.05;1.00;;;;;;;17.74;100.00;99248.78;6098396;23;20073;-96
2022/10/03 09:35:50;;;;;;;6.30;1.13;;;;;;;17.23;100.00;99234.47;6124338;23;20005;-96
2022/10/03 09:38:56;;;;;;;5.45;0.90;;;;;;;16.88;100.00;99225.72;6119037;23;20086;-95
2022/10/03 09:41:54;;;;;;;6.68;1.17;;;;;;;17.15;100.00;99228.53;6243323;23;20020;-96
2022/10/03 09:44:44;;;;;;;6.32;1.20;;;;;;;17.49;100.00;99238.09;6244121;23;20406;-96
2022/10/03 09:47:28;;;;;;;8.05;1.48;;;;;;;17.28;100.00;99237.81;6242718;23;20055;-96
2022/10/03 09:50:38;;;;;;;6.70;1.00;;;;;;;17.40;100.00;99226.06;6242366;23;20035;-95
2022/10/03 09:54:00;;;;;;;12.90;1.30;;;;;;;17.56;100.00;99216.78;6099092;23;20006;-95
2022/10/03 09:56:59;;;;;;;6.30;0.98;;;;;;;17.36;100.00;99227.06;6067884;23;20041;-96
2022/10/03 10:00:10;;;;;;;8.00;1.30;;;;;;;18.15;100.00;99220.25;6098654;23;20029;-95
2022/10/03 10:03:20;;;;;;;9.70;1.33;;;;;;;17.91;100.00;99214.84;6122055;23;20018;-96
2022/10/03 10:06:20;;;;;;;7.03;1.10;;;;;;;18.26;100.00;99212.00;6097720;23;20093;-95
2022/10/03 10:09:46;;;;;;;3.55;0.77;;;;;;;17.22;100.00;99198.47;6099036;23;20002;-96
2022/10/03 10:12:26;;;;;;;9.73;1.30;;;;;;;17.67;100.00;99200.59;6013238;23;20041;-96
2022/10/03 10:15:27;;;;;;;8.20;1.27;;;;;;;18.19;100.00;99191.97;6013284;23;20062;-96
2022/10/03 10:18:31;;;;;;;6.43;1.20;;;;;;;17.53;100.00;99187.00;6037758;23;20015;-95
2022/10/03 10:21:15;;;;;;;6.68;1.17;;;;;;;18.22;100.00;99197.16;6019330;23;20007;-96
2022/10/03 10:24:31;;;;;;;5.53;0.90;;;;;;;18.72;100.00;99194.56;6041552;23;20023;-96
2022/10/03 10:27:53;;;;;;;8.52;1.20;;;;;;;18.23;100.00;99199.75;6041391;23;20019;-96
2022/10/03 10:30:44;;;;;;;6.55;1.08;;;;;;;17.70;100.00;99197.91;6028547;23;20090;-96
2022/10/03 10:33:51;;;;;;;7.10;1.50;;;;;;;17.89;100.00;99198.16;6039325;23;20020;-96
2022/10/03 10:36:54;;;;;;;6.97;1.10;;;;;;;17.96;100.00;99198.88;6040639;23;20011;-96
2022/10/03 10:39:26;;;;;;;6.13;1.25;;;;;;;17.96;100.00;99198.88;6037112;23;20025;-96
2022/10/03 10:42:12;;;;;;;7.93;1.45;;;;;;;17.79;100.00;99190.59;6039044;23;20007;-96
2022/10/03 10:44:46;;;;;;;7.60;1.50;;;;;;;17.91;100.00;99208.69;6039627;23;20627;-96
2022/10/03 10:47:49;;;;;;;6.90;1.10;;;;;;;17.13;100.00;99198.72;6040879;23;20004;-96
2022/10/03 10:50:49;;;;;;;9.98;1.45;;;;;;;17.46;100.00;99196.00;6128802;23;20563;-96
2022/10/03 10:53:54;;;;;;;6.30;1.45;;;;;;;18.21;100.00;99184.88;6129136;23;20005;-96
2022/10/03 10:56:28;;;;;;;7.40;1.63;;;;;;;18.31;100.00;99174.84;6125561;23;20104;-96
2022/10/03 10:59:31;;;;;;;10.75;1.85;;;;;;;18.04;100.00;99167.81;6126846;23;20022;-96
2022/10/03 11:02:36;;;;;;;10.05;1.60;;;;;;;17.73;100.00;99167.91;6120070;23;20014;-96
2022/10/03 11:05:23;;;;;;;15.32;1.50;;;;;;;17.53;100.00;99165.91;6194095;23;20016;-95
2022/10/03 11:07:58;;;;;;;5.72;1.42;;;;;;;17.65;100.00;99154.97;6220635;23;20008;-96
2022/10/03 11:10:38;;;;;;;12.30;2.20;;;;;;;17.41;100.00;99143.38;6220311;23;20087;-96
2022/10/03 11:13:35;;;;;;;8.93;1.58;;;;;;;17.98;100.00;99149.56;6222814;23;20012;-96
2022/10/03 11:16:38;;;;;;;8.35;1.70;;;;;;;18.64;100.00;99146.41;6224657;23;20091;-96
2022/10/03 11:19:07;;;;;;;9.73;1.70;;;;;;;19.01;100.00;99147.75;6224719;23;20341;-96
2022/10/03 11:22:10;;;;;;;9.18;1.88;;;;;;;18.80;100.00;99136.13;6223608;23;20039;-96
2022/10/03 11:24:54;;;;;;;8.13;1.70;;;;;;;17.99;100.00;99140.69;6223609;23;20402;-95
2022/10/03 11:27:49;;;;;;;8.82;1.65;;;;;;;17.81;100.00;99136.00;6220263;23;20456;-96
2022/10/03 11:30:46;;;;;;;13.05;1.98;;;;;;;18.28;100.00;99146.78;6224514;23;20008;-96
2022/10/03 11:34:13;;;;;;;12.32;1.55;;;;;;;18.85;100.00;99131.53;6223613;23;20012;-95
2022/10/03 11:37:00;;;;;;;9.48;1.60;;;;;;;19.16;100.00;99138.34;6222436;23;20000;-96
2022/10/03 11:39:45;;;;;;;10.13;1.58;;;;;;;18.81;100.00;99129.94;6220146;23;20040;-96
2022/10/03 11:42:15;;;;;;;8.27;1.75;;;;;;;18.95;100.00;99128.59;6220887;23;20004;-96
2022/10/03 11:44:53;;;;;;;11.93;2.10;;;;;;;18.68;100.00;99120.75;6215348;23;20027;-95
2022/10/03 11:47:51;;;;;;;11.55;1.90;;;;;;;18.58;100.00;99117.59;6217063;23;20008;-95
2022/10/03 11:50:28;;;;;;;11.70;1.75;;;;;;;18.69;100.00;99107.47;6214675;23;20008;-96
2022/10/03 11:53:13;;;;;;;10.23;1.73;;;;;;;19.51;100.00;99107.03;6217024;23;20030;-95
2022/10/03 11:55:51;;;;;;;11.35;1.90;;;;;;;19.50;100.00;99099.13;6216087;23;20315;-95
2022/10/03 11:58:33;;;;;;;10.90;1.90;;;;;;;19.70;100.00;99085.97;6213541;23;20008;-94
2022/10/03 12:01:28;;;;;;;10.27;1.90;;;;;;;19.47;100.00;99080.75;6214927;23;20469;-96
2022/10/03 12:04:24;;;;;;;9.45;1.70;;;;;;;20.01;100.00;99090.00;6188693;23;20017;-95
2022/10/03 12:10:19;;;;;;;;;;;;;;;20.11;100.00;99095.75;6215839;23;20029;-95
2022/10/03 12:12:56;;;;;;;11.65;1.90;;;;;;;19.98;100.00;99086.66;6214512;23;19943;-96
2022/10/03 12:15:45;;;;;;;9.18;2.03;;;;;;;20.33;100.00;99074.50;6215593;23;20084;-96
2022/10/03 12:18:41;;;;;;;12.32;2.17;;;;;;;19.82;100.00;99089.94;6213856;23;20027;-95
2022/10/03 12:21:39;;;;;;;10.30;2.00;;;;;;;19.33;100.00;99076.03;6214283;23;20099;-96
2022/10/03 12:24:22;;;;;;;10.93;2.05;;;;;;;19.44;100.00;99065.88;6213612;23;20004;-96
2022/10/03 12:27:42;;;;;;;;;;;;;;;;;;;;;
2022/10/03 12:30:18;;;;;;;9.73;2.10;;;;;;;19.58;100.00;99065.31;6211263;23;20076;-96
2022/10/03 12:36:57;;;;;;;;;;;;;;;19.69;100.00;99057.78;6123771;23;20025;-95
2022/10/03 12:40:11;;;;;;;;;;;;;;;;;;;;;
2022/10/03 12:42:59;;;;;;;8.77;1.80;;;;;;;19.69;100.00;99047.19;6210081;23;20075;-95
2022/10/03 12:45:27;;;;;;;10.93;2.28;;;;;;;19.65;100.00;99047.41;6213975;23;20032;-94
2022/10/03 12:48:19;;;;;;;13.93;2.83;;;;;;;19.68;100.00;99034.91;6213088;23;20009;-94
2022/10/03 12:50:57;;;;;;;9.23;2.08;;;;;;;19.52;100.00;99033.81;6126096;23;20018;-96
2022/10/03 12:54:19;;;;;;;12.93;2.28;;;;;;;19.18;100.00;99025.47;6126002;23;20010;-94
2022/10/03 12:56:59;;;;;;;11.13;2.45;;;;;;;19.09;100.00;99026.72;6063598;23;20334;-95
2022/10/03 12:59:37;;;;;;;13.20;2.50;;;;;;;19.18;100.00;99025.47;6017829;23;20015;-95
2022/10/03 13:02:05;;;;;;;11.63;2.60;;;;;;;19.82;100.00;99020.25;6112600;23;20025;-95
2022/10/03 13:08:12;;;;;;;12.85;2.50;;;;;;;19.95;100.00;99001.13;6178970;23;20044;-96
2022/10/03 13:10:47;;;;;;;12.40;2.40;;;;;;;19.43;100.00;99016.56;6182680;23;20009;-94
2022/10/03 13:13:48;;;;;;;10.07;2.50;;;;;;;19.51;100.00;99006.53;6155442;23;20048;-94
2022/10/03 13:16:21;;;;;;;10.30;2.40;;;;;;;19.46;100.00;99003.19;6182458;23;20179;-95
2022/10/03 13:19:06;;;;;;;11.20;2.85;;;;;;;19.49;100.00;99012.78;6182627;23;20088;-95
2022/10/03 13:22:20;;;;;;;13.95;2.40;;;;;;;18.89;100.00;98998.41;6157553;23;20024;-95
2022/10/03 13:27:47;;;;;;;8.95;2.22;;;;;;;18.97;100.00;98984.91;6214298;23;19907;-95
2022/10/03 13:30:42;;;;;;;15.68;2.78;;;;;;;19.51;100.00;98976.53;6243288;23;20008;-95
2022/10/03 13:33:23;;;;;;;13.43;2.30;;;;;;;18.83;100.00;98979.25;6244561;23;20008;-95
2022/10/03 13:36:12;;;;;;;12.95;2.70;;;;;;;18.92;100.00;98978.94;6242218;23;20113;-95
2022/10/03 13:39:01;;;;;;;12.48;2.90;;;;;;;18.88;100.00;98983.47;6243636;23;20027;-95
2022/10/03 13:42:01;;;;;;;11.95;2.72;;;;;;;18.98;100.00;98981.31;6243805;23;20020;-95
2022/10/03 13:44:54;;;;;;;12.52;2.70;;;;;;;18.98;100.00;98986.59;6243507;23;20011;-96
2022/10/03 13:47:51;;;;;;;8.38;2.10;;;;;;;19.80;100.00;98977.13;6244326;23;20010;-95